Time;durP1;ratioP1;P1;durP2;ratioP2;P2;SDS_P1;SDS_P2;PMS_P1;PMS_P2;Temp;Humidity;BMP_temperature;BMP_pressure;BME280_temperature;BME280_humidity;BME280_pressure;Samples;Min_cycle;Max_cycle;Signal;HPM_P1;HPM_P2
2022/06/20 00:01:57;;;;;;;4.10;0.73;;;14.50;99.90;;;;;;5033137;28;20028;-32
2022/06/20 00:04:22;;;;;;;12.73;1.75;;;14.50;99.90;;;;;;5041855;28;20041;-48
2022/06/20 00:06:48;;;;;;;8.77;1.25;;;14.50;99.90;;;;;;5036345;28;20044;-38
2022/06/20 00:09:13;;;;;;;3.40;1.15;;;14.50;99.90;;;;;;5033889;28;20052;-40
2022/06/20 00:11:46;;;;;;;6.20;1.42;;;14.50;99.90;;;;;;5032744;28;20033;-39
2022/06/20 00:14:18;;;;;;;5.38;1.27;;;14.60;99.90;;;;;;5043755;28;20469;-38
2022/06/20 00:16:44;;;;;;;4.32;1.35;;;14.60;99.90;;;;;;5036860;28;20021;-37
2022/06/20 00:19:12;;;;;;;5.18;1.15;;;14.60;99.90;;;;;;5035365;28;20477;-36
2022/06/20 00:21:38;;;;;;;4.25;1.35;;;14.60;99.90;;;;;;5033011;28;20060;-37
2022/06/20 00:24:04;;;;;;;3.33;1.27;;;14.60;99.90;;;;;;5037675;28;20388;-36
2022/06/20 00:26:30;;;;;;;3.95;0.90;;;14.60;99.90;;;;;;5052762;28;20151;-38
2022/06/20 00:28:56;;;;;;;5.13;1.10;;;14.50;99.90;;;;;;5047102;28;20030;-35
2022/06/20 00:31:23;;;;;;;6.90;0.88;;;14.50;99.90;;;;;;5033319;28;20390;-38
2022/06/20 00:33:49;;;;;;;9.10;2.00;;;14.50;99.90;;;;;;5039235;28;20049;-38
2022/06/20 00:36:15;;;;;;;4.82;1.35;;;14.50;99.90;;;;;;5041959;28;20029;-38
2022/06/20 00:38:43;;;;;;;15.30;1.75;;;14.50;99.90;;;;;;5035332;28;21136;-33
2022/06/20 00:41:19;;;;;;;3.10;1.08;;;14.40;99.90;;;;;;5033266;28;20029;-37
2022/06/20 00:43:47;;;;;;;7.03;1.50;;;14.40;99.90;;;;;;5034969;28;20044;-37
2022/06/20 00:46:27;;;;;;;5.70;1.75;;;14.40;99.90;;;;;;5039525;28;20029;-38
2022/06/20 00:49:11;;;;;;;4.90;1.27;;;14.40;99.90;;;;;;5042836;28;20385;-37
2022/06/20 00:51:43;;;;;;;4.30;1.67;;;14.30;99.90;;;;;;5036151;28;20504;-36
2022/06/20 00:54:19;;;;;;;6.30;1.33;;;14.30;99.90;;;;;;5036070;28;20484;-37
2022/06/20 00:56:56;;;;;;;7.90;1.42;;;14.30;99.90;;;;;;5036463;28;20612;-38
2022/06/20 00:59:32;;;;;;;13.68;1.85;;;14.30;99.90;;;;;;5036456;28;20017;-38
2022/06/20 01:02:00;;;;;;;8.25;1.90;;;14.30;99.90;;;;;;5035538;28;20528;-37
2022/06/20 01:04:59;;;;;;;11.45;1.95;;;14.30;99.90;;;;;;5045259;28;20497;-38
2022/06/20 01:07:31;;;;;;;8.02;1.45;;;14.30;99.90;;;;;;5037319;28;20032;-39
2022/06/20 01:09:58;;;;;;;4.82;1.20;;;14.30;99.90;;;;;;5036365;28;20025;-43
2022/06/20 01:12:27;;;;;;;7.35;1.30;;;14.30;99.90;;;;;;5036226;28;20474;-39
2022/06/20 01:14:53;;;;;;;8.13;1.30;;;14.30;99.90;;;;;;5035766;28;20104;-37
2022/06/20 01:17:26;;;;;;;11.88;1.30;;;14.40;99.90;;;;;;5039182;28;20142;-37
2022/06/20 01:19:56;;;;;;;8.00;1.55;;;14.40;99.90;;;;;;5039540;28;20074;-37
2022/06/20 01:22:28;;;;;;;7.93;1.55;;;14.40;99.90;;;;;;5046061;28;20576;-39
2022/06/20 01:25:12;;;;;;;11.63;2.35;;;14.40;99.90;;;;;;5036436;28;20164;-38
2022/06/20 01:27:41;;;;;;;6.95;1.30;;;14.50;99.90;;;;;;5037059;28;20589;-37
2022/06/20 01:30:07;;;;;;;7.20;1.75;;;14.50;99.90;;;;;;5035208;28;20037;-37
2022/06/20 01:32:34;;;;;;;6.40;1.35;;;14.50;99.90;;;;;;5045846;28;20025;-38
2022/06/20 01:35:03;;;;;;;6.68;1.17;;;14.60;99.90;;;;;;5035306;28;20556;-39
2022/06/20 01:37:32;;;;;;;4.95;1.55;;;14.70;99.90;;;;;;5038844;28;20025;-38
2022/06/20 01:40:13;;;;;;;11.30;1.40;;;14.70;99.90;;;;;;5035528;28;20025;-38
2022/06/20 01:42:41;;;;;;;7.10;1.38;;;14.60;99.90;;;;;;5044459;28;20032;-40
2022/06/20 01:48:13;;;;;;;2.17;0.80;;;14.50;99.90;;;;;;5034833;28;19916;-36
2022/06/20 01:50:42;;;;;;;11.52;1.20;;;14.40;99.90;;;;;;5035317;28;20030;-31
2022/06/20 01:53:12;;;;;;;4.57;1.13;;;14.40;99.90;;;;;;5037064;28;20009;-34
2022/06/20 01:55:41;;;;;;;6.70;1.45;;;14.40;99.90;;;;;;5038163;28;20497;-31
2022/06/20 01:58:20;;;;;;;5.43;1.23;;;14.40;99.90;;;;;;5044165;28;20052;-35
2022/06/20 02:00:46;;;;;;;8.95;1.35;;;14.30;99.90;;;;;;5043712;28;20072;-33
2022/06/20 02:03:17;;;;;;;6.85;1.23;;;14.30;99.90;;;;;;5038725;28;20048;-31
2022/06/20 02:05:45;;;;;;;7.28;1.23;;;14.20;99.90;;;;;;5039743;28;20036;-35
2022/06/20 02:08:13;;;;;;;5.07;1.27;;;14.20;99.90;;;;;;5037120;28;20489;-29
2022/06/20 02:10:57;;;;;;;6.18;1.20;;;14.20;99.90;;;;;;5033922;28;20382;-31
2022/06/20 02:13:26;;;;;;;1.90;0.80;;;14.20;99.90;;;;;;5044377;28;20085;-29
2022/06/20 02:15:56;;;;;;;2.67;1.05;;;14.20;99.90;;;;;;5053953;28;20496;-30
2022/06/20 02:18:22;;;;;;;2.83;1.17;;;14.20;99.90;;;;;;5050340;28;20476;-35
2022/06/20 02:20:50;;;;;;;5.75;1.63;;;14.10;99.90;;;;;;5053523;28;20112;-31
2022/06/20 02:23:25;;;;;;;2.22;1.05;;;14.10;99.90;;;;;;5048233;28;20083;-32
2022/06/20 02:25:53;;;;;;;4.90;0.95;;;14.10;99.90;;;;;;5036597;28;20119;-32
2022/06/20 02:28:29;;;;;;;6.97;1.38;;;14.20;99.90;;;;;;5034503;28;20766;-33
2022/06/20 02:30:54;;;;;;;4.53;1.05;;;14.20;99.90;;;;;;5047526;28;20516;-29
2022/06/20 02:33:25;;;;;;;5.18;0.93;;;14.10;99.90;;;;;;5033919;28;20022;-32
2022/06/20 02:35:52;;;;;;;8.70;2.53;;;14.10;99.90;;;;;;5034524;28;20021;-30
2022/06/20 02:38:20;;;;;;;6.75;1.40;;;14.10;99.90;;;;;;5035816;28;20013;-29
2022/06/20 02:40:46;;;;;;;4.45;1.08;;;14.10;99.90;;;;;;5034213;28;20033;-33
2022/06/20 02:43:18;;;;;;;6.50;0.90;;;14.10;99.90;;;;;;5033870;28;20034;-30
2022/06/20 02:45:45;;;;;;;4.22;1.02;;;14.20;99.90;;;;;;5034412;28;20367;-35
2022/06/20 02:48:13;;;;;;;2.85;0.70;;;14.20;99.90;;;;;;5034050;28;20512;-39
2022/06/20 02:50:45;;;;;;;5.72;0.77;;;14.30;99.90;;;;;;5037370;28;20481;-31
2022/06/20 02:53:42;;;;;;;3.35;0.90;;;14.20;99.90;;;;;;5048595;28;20041;-30
2022/06/20 02:56:12;;;;;;;3.03;0.93;;;14.20;99.90;;;;;;5034089;28;20092;-30
2022/06/20 02:58:42;;;;;;;6.15;1.13;;;14.20;99.90;;;;;;5041450;28;20025;-32
2022/06/20 03:01:34;;;;;;;5.85;1.42;;;14.20;99.90;;;;;;5044250;28;20111;-37
2022/06/20 03:04:00;;;;;;;1.75;1.08;;;14.20;99.90;;;;;;5042697;28;20037;-39
2022/06/20 03:06:54;;;;;;;5.63;1.23;;;14.20;99.90;;;;;;5033618;28;20485;-38
2022/06/20 03:09:26;;;;;;;4.63;0.63;;;14.20;99.90;;;;;;5039897;28;20021;-38
2022/06/20 03:11:52;;;;;;;2.33;0.93;;;14.20;99.90;;;;;;5038432;28;20663;-38
2022/06/20 03:14:20;;;;;;;3.20;0.80;;;14.20;99.90;;;;;;5033806;28;20052;-38
2022/06/20 03:16:46;;;;;;;2.33;0.80;;;14.20;99.90;;;;;;5033374;28;20485;-37
2022/06/20 03:19:19;;;;;;;9.52;1.30;;;14.10;99.90;;;;;;5033768;28;20030;-37
2022/06/20 03:21:47;;;;;;;5.30;1.27;;;14.20;99.90;;;;;;5034912;28;20049;-38
2022/06/20 03:24:17;;;;;;;3.83;1.10;;;14.20;99.90;;;;;;5036906;28;20037;-53
2022/06/20 03:26:43;;;;;;;6.25;1.17;;;14.10;99.90;;;;;;5033662;28;20033;-42
2022/06/20 03:29:14;;;;;;;5.47;1.13;;;14.10;99.90;;;;;;5032557;28;20111;-47
2022/06/20 03:31:40;;;;;;;4.45;1.20;;;14.10;99.90;;;;;;5036937;28;20075;-37
2022/06/20 03:34:07;;;;;;;2.67;1.55;;;14.10;99.90;;;;;;5036144;28;20060;-38
2022/06/20 03:36:34;;;;;;;13.17;1.20;;;14.10;99.90;;;;;;5033453;28;20072;-38
2022/06/20 03:39:01;;;;;;;9.97;1.33;;;14.10;99.90;;;;;;5032848;28;20817;-31
2022/06/20 03:41:27;;;;;;;8.50;1.08;;;14.00;99.90;;;;;;5049633;28;20029;-31
2022/06/20 03:43:57;;;;;;;2.65;0.70;;;14.00;99.90;;;;;;5035954;28;20072;-30
2022/06/20 03:46:27;;;;;;;4.50;1.02;;;14.00;99.90;;;;;;5043886;28;20106;-37
2022/06/20 03:49:07;;;;;;;6.47;1.48;;;14.00;99.90;;;;;;5039738;28;20031;-29
2022/06/20 03:51:40;;;;;;;7.45;1.35;;;14.10;99.90;;;;;;5053200;28;20496;-30
2022/06/20 03:54:26;;;;;;;4.05;0.85;;;14.00;99.90;;;;;;5053289;28;20470;-32
2022/06/20 03:57:08;;;;;;;5.10;0.60;;;14.00;99.90;;;;;;5032952;28;20151;-32
2022/06/20 03:59:45;;;;;;;8.88;1.23;;;13.90;99.90;;;;;;5031424;28;20390;-30
2022/06/20 04:02:21;;;;;;;4.30;1.23;;;13.90;99.90;;;;;;5036284;28;20040;-31
2022/06/20 04:05:06;;;;;;;5.95;0.75;;;14.00;99.90;;;;;;5033215;28;20022;-30
2022/06/20 04:07:37;;;;;;;4.82;1.35;;;14.00;99.90;;;;;;5033040;28;20371;-30
2022/06/20 04:14:00;;;;;;;3.83;1.25;;;14.10;99.90;;;;;;5033325;28;20053;-31
2022/06/20 04:16:44;;;;;;;4.63;1.17;;;14.20;99.90;;;;;;5022116;28;21500;-30
2022/06/20 04:19:25;;;;;;;2.17;0.98;;;14.30;99.90;;;;;;5032133;28;20053;-33
2022/06/20 04:22:15;;;;;;;7.13;1.20;;;14.30;99.90;;;;;;5035024;28;20482;-29
2022/06/20 04:24:52;;;;;;;6.30;1.55;;;14.30;99.90;;;;;;5037576;28;20056;-34
2022/06/20 04:27:24;;;;;;;2.33;1.10;;;14.30;99.90;;;;;;5036988;28;20148;-31
2022/06/20 04:30:08;;;;;;;0.65;0.65;;;14.30;99.90;;;;;;5035717;28;20053;-32
2022/06/20 04:32:35;;;;;;;3.20;1.13;;;14.20;99.90;;;;;;5037682;28;20068;-30
2022/06/20 04:35:20;;;;;;;6.47;1.27;;;14.30;99.90;;;;;;5042043;28;20504;-31
2022/06/20 04:38:12;;;;;;;4.13;1.20;;;14.20;99.90;;;;;;5038224;28;20017;-32
2022/06/20 04:40:51;;;;;;;3.38;1.00;;;14.30;99.90;;;;;;5038113;28;20485;-36
2022/06/20 04:43:31;;;;;;;5.80;1.67;;;14.20;99.90;;;;;;5036799;28;20025;-37
2022/06/20 04:46:19;;;;;;;8.63;1.17;;;14.20;99.90;;;;;;5036472;28;20477;-36
2022/06/20 04:48:47;;;;;;;4.72;1.40;;;14.10;99.90;;;;;;5040588;28;20086;-37
2022/06/20 04:51:19;;;;;;;10.45;1.85;;;14.10;99.90;;;;;;5044782;28;20447;-37
2022/06/20 04:53:46;;;;;;;12.25;1.55;;;14.10;99.90;;;;;;5056590;28;20377;-37
2022/06/20 04:56:15;;;;;;;1.90;1.60;;;14.10;99.90;;;;;;5048942;28;20018;-36
2022/06/20 04:58:49;;;;;;;5.78;1.77;;;14.10;99.90;;;;;;5038176;28;20473;-36
2022/06/20 05:01:16;;;;;;;4.82;1.63;;;14.10;99.90;;;;;;5047623;28;20358;-38
2022/06/20 05:03:46;;;;;;;5.05;1.50;;;14.00;99.90;;;;;;5049022;28;20025;-38
2022/06/20 05:06:27;;;;;;;4.30;1.23;;;14.10;99.90;;;;;;5045605;28;20032;-37
2022/06/20 05:09:06;;;;;;;5.15;1.50;;;14.10;99.90;;;;;;5056198;28;20517;-38
2022/06/20 05:11:41;;;;;;;14.27;2.05;;;14.10;99.90;;;;;;5042208;28;20025;-37
2022/06/20 05:14:24;;;;;;;8.57;2.47;;;14.10;99.90;;;;;;5034898;28;20029;-37
2022/06/20 05:16:53;;;;;;;10.02;2.05;;;14.20;99.90;;;;;;5046131;28;20056;-37
2022/06/20 05:19:21;;;;;;;5.00;1.75;;;14.20;99.90;;;;;;5051626;28;20496;-37
2022/06/20 05:21:51;;;;;;;6.40;1.58;;;14.30;99.90;;;;;;5034622;28;20032;-37
2022/06/20 05:24:21;;;;;;;15.18;3.05;;;14.30;99.90;;;;;;5034534;28;20065;-36
2022/06/20 05:26:49;;;;;;;8.43;2.38;;;14.30;99.90;;;;;;5037081;28;20534;-36
2022/06/20 05:29:23;;;;;;;3.45;1.77;;;14.30;99.90;;;;;;5034465;28;20056;-37
2022/06/20 05:31:52;;;;;;;3.88;2.05;;;14.30;99.90;;;;;;5038641;28;20470;-36
2022/06/20 05:35:06;;;;;;;4.20;1.63;;;14.30;99.90;;;;;;5053553;28;20017;-37
2022/06/20 05:37:52;;;;;;;2.38;1.65;;;14.50;99.90;;;;;;5030975;28;20155;-37
2022/06/20 05:40:48;;;;;;;4.75;1.80;;;14.60;99.90;;;;;;5040857;28;20112;-36
2022/06/20 05:43:21;;;;;;;6.43;2.13;;;14.70;99.90;;;;;;5032808;28;20037;-37
2022/06/20 05:45:53;;;;;;;7.07;2.55;;;14.70;99.90;;;;;;5035596;28;20030;-37
2022/06/20 05:48:24;;;;;;;7.60;1.65;;;14.70;99.90;;;;;;5036078;28;20026;-37
2022/06/20 05:50:57;;;;;;;6.32;1.85;;;14.70;99.90;;;;;;5034003;28;20474;-37
2022/06/20 05:53:34;;;;;;;5.88;1.73;;;14.70;99.90;;;;;;5036411;28;20029;-36
2022/06/20 05:56:03;;;;;;;8.13;2.10;;;14.60;99.90;;;;;;5046271;28;20026;-38
2022/06/20 05:58:32;;;;;;;11.82;2.25;;;14.70;99.90;;;;;;5040900;28;20488;-37
2022/06/20 06:01:04;;;;;;;6.70;1.98;;;14.80;99.90;;;;;;5042963;28;20025;-37
2022/06/20 06:03:53;;;;;;;6.78;1.88;;;14.80;99.90;;;;;;5040500;28;20079;-31
2022/06/20 06:06:27;;;;;;;7.93;1.77;;;14.90;99.90;;;;;;5037800;28;20507;-28
2022/06/20 06:09:03;;;;;;;7.75;1.95;;;14.90;99.90;;;;;;5041510;28;20478;-29
2022/06/20 06:11:59;;;;;;;8.73;1.92;;;15.00;99.90;;;;;;5041900;28;20028;-34
2022/06/20 06:14:32;;;;;;;10.25;2.10;;;15.40;99.90;;;;;;5052089;28;20067;-31
2022/06/20 06:17:14;;;;;;;11.85;2.13;;;16.00;99.90;;;;;;5039720;28;20394;-29
2022/06/20 06:19:51;;;;;;;4.82;2.13;;;16.50;99.90;;;;;;5046507;28;20052;-30
2022/06/20 06:22:32;;;;;;;4.50;1.40;;;17.50;99.90;;;;;;5054148;28;20025;-32
2022/06/20 06:25:28;;;;;;;5.88;1.42;;;19.40;99.90;;;;;;5054490;28;20037;-49
2022/06/20 06:27:59;;;;;;;11.40;1.92;;;20.60;99.90;;;;;;5053861;28;20037;-30
2022/06/20 06:30:34;;;;;;;6.10;1.70;;;21.60;99.90;;;;;;5054142;28;20570;-32
2022/06/20 06:33:05;;;;;;;13.70;2.28;;;22.10;99.30;;;;;;5049529;28;20025;-37
2022/06/20 06:35:44;;;;;;;7.05;1.67;;;22.70;98.40;;;;;;5034576;28;20014;-33
2022/06/20 06:38:17;;;;;;;6.50;1.75;;;23.10;98.00;;;;;;5034476;28;20485;-33
2022/06/20 06:40:53;;;;;;;4.95;2.08;;;23.50;97.60;;;;;;5034763;28;20121;-34
2022/06/20 06:43:40;;;;;;;7.53;1.70;;;23.40;97.50;;;;;;5033779;28;20116;-33
2022/06/20 06:46:13;;;;;;;6.45;1.55;;;22.70;97.80;;;;;;5034451;28;20026;-30
2022/06/20 06:48:55;;;;;;;4.45;1.60;;;22.70;97.90;;;;;;5034458;28;20063;-33
2022/06/20 06:51:28;;;;;;;11.80;1.88;;;22.60;98.00;;;;;;5034218;28;20389;-30
2022/06/20 06:53:59;;;;;;;6.70;2.20;;;20.50;99.10;;;;;;5034456;28;20485;-32
2022/06/20 06:56:35;;;;;;;8.57;2.30;;;18.90;99.90;;;;;;5034447;28;20056;-30
2022/06/20 06:59:18;;;;;;;4.72;2.10;;;17.60;99.90;;;;;;5034099;28;20021;-33
2022/06/20 07:01:49;;;;;;;9.00;1.60;;;17.10;99.90;;;;;;5034327;28;20018;-34
2022/06/20 07:04:25;;;;;;;15.07;2.85;;;17.00;99.90;;;;;;5039704;28;20507;-33
2022/06/20 07:07:32;;;;;;;7.50;2.22;;;17.40;99.90;;;;;;5053861;28;20021;-30
2022/06/20 07:09:58;;;;;;;;;;;17.10;99.90;;;;;;5054428;28;20527;-29
2022/06/20 07:12:30;;;;;;;17.98;3.55;;;16.80;99.90;;;;;;5053913;28;19951;-31
2022/06/20 07:15:07;;;;;;;6.55;1.95;;;17.20;99.90;;;;;;5053725;28;20485;-33
2022/06/20 07:17:53;;;;;;;5.47;1.63;;;17.90;99.90;;;;;;5054047;28;20533;-37
2022/06/20 07:20:21;;;;;;;4.20;1.95;;;19.20;99.90;;;;;;5053690;28;20111;-36
2022/06/20 07:22:48;;;;;;;6.32;1.92;;;19.80;99.90;;;;;;5052682;28;20489;-29
2022/06/20 07:25:24;;;;;;;5.20;1.53;;;19.80;99.90;;;;;;5053582;28;20096;-32
2022/06/20 07:28:00;;;;;;;11.00;1.90;;;20.50;99.90;;;;;;5053576;28;20017;-32
2022/06/20 07:30:31;;;;;;;6.05;1.67;;;20.20;99.90;;;;;;5052131;28;20565;-35
2022/06/20 07:33:05;;;;;;;10.60;2.22;;;19.60;99.90;;;;;;5053564;28;20025;-31
2022/06/20 07:35:36;;;;;;;3.95;1.90;;;18.70;99.90;;;;;;5053454;28;20465;-34
2022/06/20 07:38:11;;;;;;;11.23;2.08;;;17.90;99.90;;;;;;5053397;28;20105;-31
2022/06/20 07:40:45;;;;;;;5.03;1.63;;;17.60;99.90;;;;;;5053717;28;20150;-33
2022/06/20 07:43:31;;;;;;;6.32;2.20;;;17.30;99.90;;;;;;5053628;28;20017;-35
2022/06/20 07:46:02;;;;;;;4.60;1.60;;;17.70;99.90;;;;;;5049354;28;20505;-35
2022/06/20 07:48:35;;;;;;;6.40;2.10;;;17.90;99.90;;;;;;5053295;28;20028;-37
2022/06/20 07:51:09;;;;;;;4.60;1.70;;;18.30;99.90;;;;;;5053386;28;20028;-38
2022/06/20 07:53:52;;;;;;;10.50;2.10;;;18.60;99.90;;;;;;5053207;28;20025;-31
2022/06/20 07:56:29;;;;;;;3.20;1.38;;;18.40;99.90;;;;;;5053124;28;20029;-32
2022/06/20 07:59:00;;;;;;;6.53;1.42;;;18.00;99.90;;;;;;5053206;28;20104;-32
2022/06/20 08:01:42;;;;;;;2.75;1.50;;;18.00;99.90;;;;;;5051850;28;20025;-32
2022/06/20 08:04:09;;;;;;;3.75;1.38;;;17.80;99.90;;;;;;5053013;28;20025;-31
2022/06/20 08:06:47;;;;;;;4.78;1.75;;;17.80;99.90;;;;;;5053135;28;20029;-30
2022/06/20 08:09:16;;;;;;;6.82;1.67;;;17.90;99.90;;;;;;5053081;28;20090;-35
2022/06/20 08:11:50;;;;;;;8.10;1.75;;;18.20;99.90;;;;;;5052822;28;20081;-31
2022/06/20 08:14:21;;;;;;;2.83;1.60;;;18.30;99.90;;;;;;5052981;28;20026;-33
2022/06/20 08:16:49;;;;;;;9.23;1.48;;;18.50;99.90;;;;;;5053210;28;20450;-36
2022/06/20 08:19:15;;;;;;;4.40;1.58;;;18.00;99.90;;;;;;5052981;28;20547;-37
2022/06/20 08:21:45;;;;;;;3.13;1.50;;;17.50;99.90;;;;;;5052974;28;20033;-37
2022/06/20 08:24:26;;;;;;;4.13;1.88;;;17.40;99.90;;;;;;5052954;28;20392;-38
2022/06/20 08:27:08;;;;;;;5.05;1.80;;;17.20;99.90;;;;;;5052909;28;20032;-43
2022/06/20 08:29:53;;;;;;;5.32;1.88;;;17.00;99.90;;;;;;5052640;28;20060;-43
2022/06/20 08:32:44;;;;;;;7.18;1.75;;;17.30;99.90;;;;;;5052856;28;20025;-38
2022/06/20 08:35:40;;;;;;;3.72;0.93;;;17.80;99.90;;;;;;5053018;28;20438;-38
2022/06/20 08:38:15;;;;;;;5.45;1.65;;;18.20;99.90;;;;;;5052799;28;20048;-39
2022/06/20 08:40:55;;;;;;;1.63;1.30;;;18.50;99.90;;;;;;5052758;28;20154;-38
2022/06/20 08:43:53;;;;;;;8.27;1.77;;;18.50;99.90;;;;;;5052819;28;20021;-39
2022/06/20 08:46:33;;;;;;;3.92;1.60;;;18.90;99.90;;;;;;5051456;28;20497;-39
2022/06/20 08:49:22;;;;;;;8.00;2.15;;;18.60;99.80;;;;;;5052963;28;20564;-38
2022/06/20 08:52:09;;;;;;;7.05;1.58;;;18.30;99.90;;;;;;5052545;28;20033;-46
2022/06/20 08:54:57;;;;;;;7.72;1.45;;;18.20;99.90;;;;;;5052721;28;20451;-41
2022/06/20 08:57:25;;;;;;;3.63;1.20;;;18.20;99.90;;;;;;5052592;28;20049;-55
2022/06/20 09:00:17;;;;;;;4.10;1.55;;;18.10;99.90;;;;;;5052832;28;20036;-36
2022/06/20 09:02:58;;;;;;;2.83;1.23;;;17.90;99.90;;;;;;5052580;28;20083;-33
2022/06/20 09:05:40;;;;;;;1.33;1.13;;;17.70;99.90;;;;;;5052356;28;20028;-34
2022/06/20 09:08:24;;;;;;;5.40;1.25;;;17.70;99.90;;;;;;5054955;28;20477;-47
2022/06/20 09:11:01;;;;;;;3.85;1.05;;;18.20;99.90;;;;;;5056268;28;20500;-38
2022/06/20 09:13:42;;;;;;;6.95;1.92;;;18.80;99.90;;;;;;5056142;28;20017;-38
2022/06/20 09:16:29;;;;;;;4.38;1.40;;;19.30;99.60;;;;;;5056394;28;20543;-37
2022/06/20 09:19:33;;;;;;;8.60;1.23;;;19.40;98.80;;;;;;5056019;28;20481;-39
2022/06/20 09:22:08;;;;;;;2.03;0.82;;;19.90;98.90;;;;;;5056176;28;20500;-37
2022/06/20 09:25:11;;;;;;;2.22;1.00;;;19.50;96.70;;;;;;5055929;28;20025;-39
2022/06/20 09:28:01;;;;;;;3.67;0.93;;;19.60;96.80;;;;;;5055762;28;20025;-38
2022/06/20 09:31:03;;;;;;;7.93;1.65;;;19.70;96.30;;;;;;5055541;28;20120;-44
2022/06/20 09:33:51;;;;;;;2.33;0.65;;;19.80;96.20;;;;;;5051897;28;20532;-39
2022/06/20 09:36:23;;;;;;;1.92;0.85;;;19.80;95.50;;;;;;5055735;28;20048;-38
2022/06/20 09:39:16;;;;;;;5.18;0.90;;;19.80;95.40;;;;;;5055839;28;20493;-37
2022/06/20 09:42:10;;;;;;;2.47;0.88;;;19.70;95.30;;;;;;5055713;28;20465;-38
2022/06/20 09:44:51;;;;;;;2.33;0.73;;;19.80;96.30;;;;;;5055735;28;20017;-38
2022/06/20 09:47:36;;;;;;;3.20;1.00;;;19.70;96.20;;;;;;5055440;28;20017;-41
2022/06/20 09:50:17;;;;;;;1.98;1.10;;;19.60;96.90;;;;;;5054131;28;20047;-37
2022/06/20 09:52:58;;;;;;;4.57;1.83;;;19.50;97.80;;;;;;5053978;28;20083;-38
2022/06/20 09:55:33;;;;;;;6.53;1.40;;;19.70;98.10;;;;;;5055568;28;20469;-29
2022/06/20 09:58:03;;;;;;;4.28;1.27;;;19.30;98.40;;;;;;5046703;28;20112;-29
2022/06/20 10:00:40;;;;;;;6.18;1.35;;;19.40;98.50;;;;;;5036324;28;20061;-30
2022/06/20 10:03:12;;;;;;;4.32;1.42;;;19.50;98.60;;;;;;5036078;28;20481;-33
2022/06/20 10:05:47;;;;;;;6.63;1.70;;;19.60;98.30;;;;;;5041461;28;20040;-38
2022/06/20 10:08:42;;;;;;;4.45;1.55;;;19.80;98.50;;;;;;5034259;28;20112;-31
2022/06/20 10:11:26;;;;;;;6.80;1.30;;;19.70;98.00;;;;;;5038292;28;20087;-42
2022/06/20 10:14:30;;;;;;;4.05;1.27;;;19.50;98.10;;;;;;5035157;28;20032;-30
2022/06/20 10:17:04;;;;;;;9.63;1.17;;;19.40;98.30;;;;;;5034973;28;20549;-34
2022/06/20 10:19:35;;;;;;;3.78;1.20;;;19.50;98.30;;;;;;5033575;28;20469;-34
2022/06/20 10:22:22;;;;;;;4.32;1.35;;;19.80;98.10;;;;;;5034878;28;20026;-31
2022/06/20 10:25:16;;;;;;;3.28;1.17;;;20.00;97.50;;;;;;5034959;28;20036;-33
2022/06/20 10:27:41;;;;;;;5.22;1.23;;;19.70;97.50;;;;;;5034700;28;20120;-32
2022/06/20 10:30:18;;;;;;;5.93;1.10;;;19.70;97.80;;;;;;5034481;28;20077;-33
2022/06/20 10:32:55;;;;;;;3.97;1.45;;;19.80;97.40;;;;;;5034571;28;20112;-35
2022/06/20 10:35:44;;;;;;;5.43;1.38;;;19.90;97.30;;;;;;5034945;28;20021;-36
2022/06/20 10:38:32;;;;;;;2.30;1.30;;;20.00;97.50;;;;;;5034562;28;20025;-35
2022/06/20 10:41:18;;;;;;;3.72;1.10;;;19.60;97.60;;;;;;5034428;28;20057;-32
2022/06/20 10:44:16;;;;;;;4.93;1.17;;;19.50;97.50;;;;;;5034380;28;20062;-37
2022/06/20 10:47:15;;;;;;;2.75;1.05;;;19.40;97.80;;;;;;5029793;28;20049;-30
2022/06/20 10:50:09;;;;;;;3.33;1.10;;;19.50;98.40;;;;;;5032907;28;20049;-31
2022/06/20 10:53:01;;;;;;;4.00;1.25;;;19.70;97.40;;;;;;5034101;28;20037;-33
2022/06/20 10:55:42;;;;;;;3.97;1.60;;;20.20;97.10;;;;;;5034265;28;20086;-33
2022/06/20 10:58:10;;;;;;;7.53;1.48;;;20.10;96.80;;;;;;5034235;28;20026;-35
2022/06/20 11:00:47;;;;;;;4.30;1.35;;;19.90;97.20;;;;;;5032750;28;20079;-32
2022/06/20 11:03:25;;;;;;;4.38;1.08;;;19.80;97.10;;;;;;5034102;28;20021;-30
2022/06/20 11:06:10;;;;;;;11.90;1.83;;;19.60;97.80;;;;;;5033883;28;20030;-29
2022/06/20 11:08:44;;;;;;;6.70;1.48;;;19.10;97.60;;;;;;5033946;28;20033;-31
2022/06/20 11:11:18;;;;;;;3.15;1.30;;;18.70;99.00;;;;;;5034065;28;20481;-33
2022/06/20 11:14:02;;;;;;;18.40;6.65;;;18.60;98.90;;;;;;5033813;28;20083;-33
2022/06/20 11:16:46;;;;;;;5.97;2.53;;;18.70;99.10;;;;;;5033847;28;20112;-29
2022/06/20 11:19:21;;;;;;;4.57;1.70;;;19.00;99.60;;;;;;5033822;28;20064;-28
2022/06/20 11:22:22;;;;;;;4.45;1.40;;;19.30;98.40;;;;;;5034065;28;20524;-31
2022/06/20 11:24:47;;;;;;;4.78;1.27;;;19.20;98.70;;;;;;5033120;28;20049;-30
2022/06/20 11:27:34;;;;;;;7.25;1.38;;;19.00;99.50;;;;;;5033925;28;20051;-29
2022/06/20 11:30:07;;;;;;;7.53;1.65;;;18.80;99.50;;;;;;5033125;28;20045;-29
2022/06/20 11:32:53;;;;;;;13.48;1.60;;;18.60;99.40;;;;;;5033717;28;20481;-32
2022/06/20 11:35:41;;;;;;;4.65;1.80;;;18.70;99.00;;;;;;5033687;28;20033;-34
2022/06/20 11:38:20;;;;;;;3.25;1.10;;;18.70;99.40;;;;;;5033524;28;20113;-35
2022/06/20 11:41:12;;;;;;;2.05;1.10;;;18.70;99.30;;;;;;5033546;28;20482;-32
2022/06/20 11:43:40;;;;;;;3.42;1.30;;;18.90;99.20;;;;;;5033723;28;20478;-31
2022/06/20 11:46:48;;;;;;;6.30;1.48;;;19.20;98.60;;;;;;5033354;28;20022;-32
2022/06/20 11:49:14;;;;;;;2.85;1.17;;;19.10;98.30;;;;;;5032269;28;20088;-33
2022/06/20 11:52:27;;;;;;;7.57;1.65;;;18.90;98.80;;;;;;5033196;28;20441;-30
2022/06/20 11:55:19;;;;;;;1.55;1.20;;;18.70;99.60;;;;;;5033257;28;20040;-30
2022/06/20 11:57:52;;;;;;;4.28;2.13;;;18.60;99.80;;;;;;5033247;28;20053;-29
2022/06/20 12:00:38;;;;;;;9.80;1.95;;;18.50;99.90;;;;;;5033481;28;20036;-33
2022/06/20 12:03:30;;;;;;;8.25;1.30;;;18.60;99.80;;;;;;5033187;28;20057;-34
2022/06/20 12:06:01;;;;;;;7.22;2.35;;;18.40;99.90;;;;;;5033445;28;20076;-30
2022/06/20 12:08:40;;;;;;;4.03;1.20;;;18.20;99.90;;;;;;5033184;28;20063;-35
2022/06/20 12:11:27;;;;;;;7.45;1.60;;;18.30;99.70;;;;;;5032864;28;20501;-31
2022/06/20 12:14:17;;;;;;;3.80;1.15;;;18.40;99.90;;;;;;5033006;28;20033;-41
2022/06/20 12:17:18;;;;;;;11.40;1.98;;;18.20;99.90;;;;;;5032939;28;20025;-32
2022/06/20 12:25:35;;;;;;;6.65;1.00;;;18.00;99.90;;;;;;5033039;28;20103;-36
2022/06/20 12:28:01;;;;;;;3.85;1.25;;;18.10;99.90;;;;;;5033043;28;20040;-37
2022/06/20 12:30:30;;;;;;;4.88;1.35;;;18.20;99.90;;;;;;5032616;28;20038;-38
2022/06/20 12:32:57;;;;;;;5.60;1.63;;;18.20;99.80;;;;;;5032787;28;20091;-36
2022/06/20 12:35:34;;;;;;;5.03;1.52;;;18.20;99.90;;;;;;5032836;28;20022;-36
2022/06/20 12:38:26;;;;;;;6.32;1.52;;;18.30;99.80;;;;;;5032844;28;20024;-37
2022/06/20 12:40:57;;;;;;;6.18;1.50;;;18.30;99.90;;;;;;5031192;28;20498;-37
2022/06/20 12:43:38;;;;;;;3.28;1.48;;;18.40;99.90;;;;;;5036206;28;20057;-37
2022/06/20 12:46:39;;;;;;;6.80;1.35;;;18.30;99.70;;;;;;5036791;28;20025;-37
2022/06/20 12:49:09;;;;;;;5.00;1.88;;;18.10;99.90;;;;;;5029773;28;20051;-38
2022/06/20 12:51:54;;;;;;;4.38;2.35;;;18.20;99.90;;;;;;5036441;28;20025;-38
2022/06/20 12:54:51;;;;;;;5.70;1.58;;;18.60;99.90;;;;;;5036827;28;20492;-38
2022/06/20 12:57:16;;;;;;;;;;;19.20;99.90;;;;;;5031225;28;20057;-37
2022/06/20 13:00:09;;;;;;;9.27;2.25;;;19.30;99.90;;;;;;5036407;28;20412;-38
2022/06/20 13:02:55;;;;;;;6.68;1.70;;;19.30;99.80;;;;;;5036340;28;20478;-37
2022/06/20 13:06:02;;;;;;;11.98;1.70;;;19.20;99.90;;;;;;5036342;28;20025;-38
2022/06/20 13:09:02;;;;;;;10.93;1.70;;;19.20;99.80;;;;;;5033235;28;20117;-39
2022/06/20 13:11:34;;;;;;;6.63;1.58;;;18.80;99.90;;;;;;5036242;28;20048;-37
2022/06/20 13:14:11;;;;;;;6.35;1.95;;;18.70;99.90;;;;;;5036124;28;20018;-38
2022/06/20 13:17:14;;;;;;;10.32;2.28;;;18.60;99.90;;;;;;5036431;28;20537;-38
2022/06/20 13:20:10;;;;;;;8.75;1.30;;;18.90;99.80;;;;;;5036042;28;20508;-38
2022/06/20 13:22:40;;;;;;;5.90;2.10;;;19.10;99.60;;;;;;5036199;28;20500;-38
2022/06/20 13:25:11;;;;;;;4.80;1.30;;;19.10;99.40;;;;;;5036013;28;20021;-38
2022/06/20 13:28:22;;;;;;;10.23;2.28;;;19.20;99.30;;;;;;5035874;28;20030;-37
2022/06/20 13:31:00;;;;;;;5.53;1.83;;;19.40;99.20;;;;;;5034424;28;20080;-39
2022/06/20 13:33:59;;;;;;;4.30;1.20;;;19.30;99.10;;;;;;5035855;28;20112;-37
2022/06/20 13:36:51;;;;;;;3.42;1.25;;;19.20;99.70;;;;;;5034283;28;20099;-36
2022/06/20 13:39:41;;;;;;;6.25;1.45;;;19.10;99.40;;;;;;5035768;28;20489;-37
2022/06/20 13:42:18;;;;;;;2.60;1.60;;;19.10;99.60;;;;;;5035634;28;20611;-38
2022/06/20 13:45:23;;;;;;;5.90;1.98;;;18.90;99.70;;;;;;5035645;28;20029;-37
2022/06/20 13:48:20;;;;;;;7.40;1.10;;;18.80;99.50;;;;;;5034346;28;20041;-39
2022/06/20 13:50:53;;;;;;;3.92;1.63;;;18.80;99.40;;;;;;5021478;28;20486;-37
2022/06/20 13:53:25;;;;;;;2.10;1.48;;;18.80;99.20;;;;;;5035406;28;20048;-38